Time;durP1;ratioP1;P1;durP2;ratioP2;P2;SDS_P1;SDS_P2;PMS_P1;PMS_P2;Temp;Humidity;BMP_temperature;BMP_pressure;BME280_temperature;BME280_humidity;BME280_pressure;Samples;Min_cycle;Max_cycle;Signal;HPM_P1;HPM_P2
2023/03/21 00:01:53;;;;;;;14.90;8.20;;;8.70;99.90;;;;;;5058700;28;20035;-64
2023/03/21 00:04:20;;;;;;;17.10;8.75;;;8.70;99.90;;;;;;5056539;28;20090;-63
2023/03/21 00:06:46;;;;;;;14.95;8.13;;;8.70;99.90;;;;;;5063171;28;20048;-64
2023/03/21 00:09:11;;;;;;;16.40;8.18;;;8.70;99.90;;;;;;5056793;28;20037;-63
2023/03/21 00:11:37;;;;;;;13.95;7.72;;;8.70;99.90;;;;;;5065376;28;20475;-64
2023/03/21 00:14:07;;;;;;;16.67;8.30;;;8.70;99.90;;;;;;5054329;28;20028;-61
2023/03/21 00:16:34;;;;;;;15.77;8.80;;;8.60;99.90;;;;;;5053277;28;20087;-64
2023/03/21 00:19:05;;;;;;;16.92;8.55;;;8.70;99.90;;;;;;5063771;28;20051;-64
2023/03/21 00:21:32;;;;;;;15.38;7.93;;;8.60;99.90;;;;;;5050198;28;20223;-63
2023/03/21 00:23:59;;;;;;;15.50;7.93;;;8.50;99.90;;;;;;5058730;28;20128;-64
2023/03/21 00:26:25;;;;;;;13.95;7.45;;;8.30;99.90;;;;;;5059206;28;20514;-64
2023/03/21 00:28:51;;;;;;;16.67;8.27;;;8.30;99.90;;;;;;5059553;28;20089;-64
2023/03/21 00:31:17;;;;;;;15.88;7.40;;;8.30;99.90;;;;;;5066366;28;20037;-63
2023/03/21 00:33:43;;;;;;;13.98;7.43;;;8.20;99.90;;;;;;5058274;28;20076;-63
2023/03/21 00:36:10;;;;;;;14.38;6.82;;;8.20;99.90;;;;;;5054491;28;20152;-61
2023/03/21 00:38:36;;;;;;;17.98;7.63;;;8.10;99.90;;;;;;5057951;28;20103;-63
2023/03/21 00:41:06;;;;;;;15.75;7.35;;;8.10;99.90;;;;;;5059948;28;20112;-64
2023/03/21 00:43:31;;;;;;;14.67;7.93;;;8.10;99.90;;;;;;5055729;28;20503;-64
2023/03/21 00:45:58;;;;;;;17.98;8.68;;;8.10;99.90;;;;;;5060900;28;20029;-64
2023/03/21 00:48:24;;;;;;;17.30;8.18;;;8.10;99.90;;;;;;5053785;28;20526;-64
2023/03/21 00:50:52;;;;;;;14.10;8.15;;;8.10;99.90;;;;;;5056383;28;20123;-64
2023/03/21 00:53:19;;;;;;;15.30;8.10;;;8.10;99.90;;;;;;5061930;28;20048;-64
2023/03/21 00:55:45;;;;;;;17.10;9.07;;;8.10;99.90;;;;;;5053184;28;20067;-64
2023/03/21 00:58:11;;;;;;;20.38;8.52;;;8.10;99.90;;;;;;5068810;28;20060;-61
2023/03/21 01:00:37;;;;;;;12.10;7.28;;;8.10;99.90;;;;;;5058619;28;20040;-63
2023/03/21 01:03:06;;;;;;;12.98;6.45;;;8.10;99.90;;;;;;5061608;28;20025;-64
2023/03/21 01:08:23;;;;;;;16.45;7.05;;;8.00;99.90;;;;;;5048394;28;20102;-63
2023/03/21 01:10:50;;;;;;;14.10;7.25;;;8.10;99.90;;;;;;5059799;28;20033;-64
2023/03/21 01:13:18;;;;;;;14.63;6.57;;;8.10;99.90;;;;;;5050032;28;20025;-65
2023/03/21 01:15:47;;;;;;;13.57;6.90;;;8.10;99.90;;;;;;5042647;28;20029;-65
2023/03/21 01:18:14;;;;;;;11.75;6.55;;;8.10;99.90;;;;;;5046653;28;20025;-62
2023/03/21 01:20:42;;;;;;;12.57;6.63;;;8.10;99.90;;;;;;5067059;28;20496;-64
2023/03/21 01:23:08;;;;;;;16.15;7.07;;;8.00;99.90;;;;;;5063620;28;20047;-64
2023/03/21 01:25:34;;;;;;;14.25;7.20;;;8.10;99.90;;;;;;5054925;28;20040;-64
2023/03/21 01:28:00;;;;;;;15.80;6.65;;;8.10;99.90;;;;;;5063424;28;20110;-63
2023/03/21 01:30:26;;;;;;;12.50;6.07;;;8.10;99.90;;;;;;5062626;28;20032;-64
2023/03/21 01:32:52;;;;;;;16.42;6.85;;;8.00;99.90;;;;;;5060906;28;20035;-64
2023/03/21 01:35:18;;;;;;;16.52;7.38;;;8.00;99.90;;;;;;5064565;28;20107;-64
2023/03/21 01:37:43;;;;;;;14.95;7.57;;;8.00;99.90;;;;;;5057453;28;20115;-63
2023/03/21 01:40:21;;;;;;;16.98;8.50;;;8.00;99.90;;;;;;5056077;28;20787;-64
2023/03/21 01:42:47;;;;;;;14.25;7.28;;;7.90;99.90;;;;;;5053673;28;20358;-64
2023/03/21 01:45:50;;;;;;;15.00;7.53;;;7.90;99.90;;;;;;5057349;28;20047;-62
2023/03/21 01:48:18;;;;;;;14.18;7.43;;;8.00;99.90;;;;;;5053472;28;20098;-60
2023/03/21 01:50:45;;;;;;;16.25;7.85;;;8.00;99.90;;;;;;5060873;28;20077;-64
2023/03/21 01:53:12;;;;;;;13.93;7.35;;;8.00;99.90;;;;;;5061503;28;20041;-64
2023/03/21 01:55:39;;;;;;;16.60;8.23;;;8.00;99.90;;;;;;5058105;28;20048;-63
2023/03/21 01:58:07;;;;;;;17.42;7.78;;;8.00;99.90;;;;;;5052294;28;20032;-64
2023/03/21 02:00:35;;;;;;;16.20;7.80;;;7.90;99.90;;;;;;5053501;28;20037;-64
2023/03/21 02:03:07;;;;;;;16.65;8.10;;;7.90;99.90;;;;;;5067021;28;20032;-63
2023/03/21 02:05:59;;;;;;;15.63;7.78;;;7.90;99.90;;;;;;5065611;28;20185;-64
2023/03/21 02:08:25;;;;;;;16.30;7.00;;;7.90;99.90;;;;;;5051583;28;20041;-64
2023/03/21 02:10:51;;;;;;;17.10;7.63;;;7.90;99.90;;;;;;5065510;28;20043;-64
2023/03/21 02:13:17;;;;;;;14.52;7.35;;;7.90;99.90;;;;;;5052167;28;20118;-62
2023/03/21 02:16:14;;;;;;;14.98;7.40;;;8.00;99.90;;;;;;5025152;28;20044;-63
2023/03/21 02:19:03;;;;;;;15.90;7.82;;;7.90;99.90;;;;;;5054778;28;20119;-63
2023/03/21 02:21:52;;;;;;;13.73;6.88;;;8.00;99.90;;;;;;5047003;28;20045;-64
2023/03/21 02:25:01;;;;;;;15.43;7.75;;;8.00;99.90;;;;;;5054421;28;20082;-61
2023/03/21 02:27:30;;;;;;;13.98;6.78;;;8.00;99.90;;;;;;5042698;28;20075;-63
2023/03/21 02:30:39;;;;;;;14.60;7.50;;;8.00;99.90;;;;;;5058607;28;20124;-64
2023/03/21 02:33:08;;;;;;;14.98;7.25;;;8.00;99.90;;;;;;4957382;28;20298;-64
2023/03/21 02:35:53;;;;;;;18.55;7.32;;;8.00;99.90;;;;;;5054788;28;20105;-61
2023/03/21 02:38:42;;;;;;;16.77;7.60;;;8.00;99.90;;;;;;5041518;28;20027;-61
2023/03/21 02:41:07;;;;;;;14.07;6.63;;;7.90;99.90;;;;;;5050555;28;20029;-64
2023/03/21 02:43:51;;;;;;;16.65;7.95;;;7.90;99.90;;;;;;5051412;28;20036;-64
2023/03/21 02:46:45;;;;;;;15.60;8.18;;;7.90;99.90;;;;;;5059738;28;21568;-61
2023/03/21 02:49:26;;;;;;;13.65;7.72;;;7.90;99.90;;;;;;5045212;28;20082;-63
2023/03/21 02:51:52;;;;;;;15.70;7.95;;;7.90;99.90;;;;;;5064240;28;20119;-65
2023/03/21 02:54:22;;;;;;;14.57;7.85;;;7.90;99.90;;;;;;5056887;28;20107;-61
2023/03/21 02:56:50;;;;;;;18.25;8.60;;;8.00;99.90;;;;;;5050050;28;20092;-64
2023/03/21 02:59:18;;;;;;;18.15;8.98;;;8.00;99.90;;;;;;5055769;28;20120;-64
2023/03/21 03:01:43;;;;;;;16.40;8.13;;;8.00;99.90;;;;;;5052083;28;20029;-64
2023/03/21 03:04:21;;;;;;;17.75;8.35;;;8.00;99.90;;;;;;5058771;28;20041;-64
2023/03/21 03:07:03;;;;;;;15.52;8.23;;;8.00;99.90;;;;;;5059121;28;20037;-63
2023/03/21 03:09:48;;;;;;;14.23;7.97;;;8.00;99.90;;;;;;5057431;28;20151;-62
2023/03/21 03:12:16;;;;;;;14.27;7.63;;;7.90;99.90;;;;;;5051699;28;20020;-63
2023/03/21 03:15:03;;;;;;;14.00;7.18;;;7.90;99.90;;;;;;5054431;28;20059;-64
2023/03/21 03:17:38;;;;;;;12.00;6.60;;;7.90;99.90;;;;;;5045676;28;20036;-65
2023/03/21 03:20:22;;;;;;;15.27;6.95;;;7.90;99.90;;;;;;5050431;28;20056;-65
2023/03/21 03:23:25;;;;;;;12.98;6.32;;;7.90;99.90;;;;;;5043707;28;20029;-63
2023/03/21 03:25:53;;;;;;;11.65;6.63;;;7.90;99.90;;;;;;5031851;28;20088;-63
2023/03/21 03:28:27;;;;;;;12.77;6.20;;;7.90;99.90;;;;;;5048496;28;20033;-63
2023/03/21 03:30:54;;;;;;;12.27;6.45;;;7.90;99.90;;;;;;5053474;28;20037;-63
2023/03/21 03:33:22;;;;;;;13.65;6.88;;;7.90;99.90;;;;;;5044098;28;20032;-61
2023/03/21 03:35:51;;;;;;;14.05;6.75;;;7.90;99.90;;;;;;5054628;28;20139;-64
2023/03/21 03:38:18;;;;;;;12.25;6.63;;;7.90;99.90;;;;;;5034881;28;20033;-64
2023/03/21 03:40:48;;;;;;;14.18;6.95;;;7.80;99.90;;;;;;5054233;28;20115;-63
2023/03/21 03:43:19;;;;;;;15.30;6.88;;;7.80;99.90;;;;;;5047842;28;20053;-64
2023/03/21 03:45:54;;;;;;;12.68;6.47;;;7.80;99.90;;;;;;5049884;28;20579;-62
2023/03/21 03:48:34;;;;;;;14.43;6.70;;;7.80;99.90;;;;;;5053956;28;20037;-62
2023/03/21 03:51:11;;;;;;;14.55;6.95;;;7.80;99.90;;;;;;5046035;28;20035;-64
2023/03/21 03:53:39;;;;;;;13.38;6.47;;;7.80;99.90;;;;;;5043000;28;20041;-64
2023/03/21 03:56:08;;;;;;;15.05;6.25;;;7.80;99.90;;;;;;5052766;28;20033;-64
2023/03/21 03:58:36;;;;;;;14.93;6.65;;;7.80;99.90;;;;;;5054316;28;20033;-63
2023/03/21 04:01:02;;;;;;;13.32;6.90;;;7.80;99.90;;;;;;5048595;28;20029;-64
2023/03/21 04:03:28;;;;;;;13.35;6.53;;;7.80;99.90;;;;;;5048254;28;20082;-64
2023/03/21 04:05:54;;;;;;;12.43;6.72;;;7.80;99.90;;;;;;5052221;28;20029;-64
2023/03/21 04:08:22;;;;;;;14.63;7.03;;;7.80;99.90;;;;;;5061970;28;20467;-63
2023/03/21 04:10:48;;;;;;;15.15;7.45;;;7.80;99.90;;;;;;5052860;28;20740;-65
2023/03/21 04:13:14;;;;;;;14.63;7.03;;;7.80;99.90;;;;;;5061714;28;20124;-65
2023/03/21 04:15:39;;;;;;;14.05;6.80;;;7.80;99.90;;;;;;5057356;28;20139;-65
2023/03/21 04:18:05;;;;;;;13.85;6.85;;;7.80;99.90;;;;;;5051017;28;20027;-65
2023/03/21 04:20:31;;;;;;;12.00;6.45;;;7.80;99.90;;;;;;5057158;28;20060;-65
2023/03/21 04:22:56;;;;;;;14.18;7.28;;;7.80;99.90;;;;;;5052175;28;20043;-64
2023/03/21 04:25:22;;;;;;;13.93;6.18;;;7.80;99.90;;;;;;5062917;28;20036;-61
2023/03/21 04:27:48;;;;;;;12.35;6.47;;;7.80;99.90;;;;;;5060288;28;20443;-64
2023/03/21 04:30:14;;;;;;;13.05;6.68;;;7.80;99.90;;;;;;5050621;28;20047;-65
2023/03/21 04:32:41;;;;;;;14.13;6.72;;;7.70;99.90;;;;;;5057579;28;20037;-64
2023/03/21 04:35:08;;;;;;;11.00;6.47;;;7.70;99.90;;;;;;5054119;28;20400;-65
2023/03/21 04:37:35;;;;;;;13.48;7.07;;;7.70;99.90;;;;;;5056396;28;20029;-65
2023/03/21 04:40:06;;;;;;;20.20;7.60;;;7.70;99.90;;;;;;5066481;28;20032;-65
2023/03/21 04:42:33;;;;;;;15.50;7.60;;;7.80;99.90;;;;;;5055887;28;20439;-64
2023/03/21 04:45:00;;;;;;;16.02;7.70;;;7.80;99.90;;;;;;5049589;28;20476;-65
2023/03/21 04:47:26;;;;;;;13.73;7.07;;;7.70;99.90;;;;;;5047052;28;20041;-61
2023/03/21 04:49:52;;;;;;;16.65;8.52;;;7.70;99.90;;;;;;5049909;28;20032;-65
2023/03/21 04:52:18;;;;;;;18.73;9.07;;;7.70;99.90;;;;;;5050530;28;20029;-65
2023/03/21 04:54:44;;;;;;;15.60;8.43;;;7.60;99.90;;;;;;5028778;28;20131;-63
2023/03/21 04:57:09;;;;;;;14.80;7.55;;;7.70;99.90;;;;;;5056269;28;20043;-64
2023/03/21 04:59:35;;;;;;;14.02;7.40;;;7.70;99.90;;;;;;5037742;28;20068;-63
2023/03/21 05:02:01;;;;;;;17.63;7.97;;;7.70;99.90;;;;;;5059224;28;20471;-63
2023/03/21 05:04:27;;;;;;;15.00;7.10;;;7.70;99.90;;;;;;5056728;28;20532;-62
2023/03/21 05:06:54;;;;;;;15.45;6.93;;;7.70;99.90;;;;;;5060787;28;20094;-63
2023/03/21 05:09:21;;;;;;;14.05;6.72;;;7.70;99.90;;;;;;5055998;28;20041;-63
2023/03/21 05:11:46;;;;;;;13.90;6.60;;;7.70;99.90;;;;;;5054070;28;20847;-63
2023/03/21 05:14:19;;;;;;;15.23;6.50;;;7.60;99.90;;;;;;5068712;28;20067;-62
2023/03/21 05:16:52;;;;;;;14.75;6.45;;;7.50;99.90;;;;;;5068525;28;20028;-63
2023/03/21 05:19:19;;;;;;;14.18;6.85;;;7.40;99.90;;;;;;5059610;28;20530;-64
2023/03/21 05:21:45;;;;;;;18.35;7.10;;;7.50;99.90;;;;;;5061022;28;20054;-63
2023/03/21 05:24:18;;;;;;;14.43;6.18;;;7.50;99.90;;;;;;5055148;28;20390;-61
2023/03/21 05:26:49;;;;;;;14.00;6.25;;;7.50;99.90;;;;;;5060523;28;20629;-64
2023/03/21 05:29:16;;;;;;;16.23;6.53;;;7.50;99.90;;;;;;5059947;28;20063;-63
2023/03/21 05:31:43;;;;;;;13.40;6.85;;;7.50;99.90;;;;;;5064964;28;20053;-66
2023/03/21 05:34:09;;;;;;;12.45;6.13;;;7.50;99.90;;;;;;5057254;28;20029;-65
2023/03/21 05:36:35;;;;;;;14.65;6.70;;;7.50;99.90;;;;;;5057073;28;20089;-63
2023/03/21 05:39:01;;;;;;;13.90;6.22;;;7.50;99.90;;;;;;5060259;28;20029;-63
2023/03/21 05:41:27;;;;;;;13.70;6.28;;;7.50;99.90;;;;;;5046947;28;20052;-62
2023/03/21 05:43:52;;;;;;;11.52;6.43;;;7.50;99.90;;;;;;5059846;28;20059;-65
2023/03/21 05:46:18;;;;;;;12.73;6.10;;;7.60;99.90;;;;;;5060964;28;20036;-65
2023/03/21 05:48:44;;;;;;;12.07;6.75;;;7.60;99.90;;;;;;5056204;28;20032;-64
2023/03/21 05:51:10;;;;;;;13.75;7.10;;;7.60;99.90;;;;;;5056576;28;20031;-65
2023/03/21 05:53:35;;;;;;;14.88;7.90;;;7.50;99.90;;;;;;5048271;28;20036;-64
2023/03/21 05:56:01;;;;;;;14.57;7.72;;;7.50;99.90;;;;;;5065308;28;20435;-65
2023/03/21 05:58:27;;;;;;;13.73;6.90;;;7.50;99.90;;;;;;5045141;28;20032;-66
2023/03/21 06:00:52;;;;;;;16.08;7.97;;;7.50;99.90;;;;;;5055670;28;20029;-64
2023/03/21 06:03:18;;;;;;;14.63;7.97;;;7.50;99.90;;;;;;5059876;28;20032;-65
2023/03/21 06:05:44;;;;;;;14.13;7.13;;;7.60;99.90;;;;;;5050872;28;20521;-64
2023/03/21 06:08:09;;;;;;;18.60;7.18;;;7.60;99.90;;;;;;5055018;28;20253;-66
2023/03/21 06:10:35;;;;;;;13.98;7.65;;;7.70;99.90;;;;;;5055897;28;20029;-64
2023/03/21 06:13:01;;;;;;;13.93;7.07;;;7.70;99.90;;;;;;5058504;28;20024;-64
2023/03/21 06:15:26;;;;;;;17.38;8.30;;;7.70;99.90;;;;;;5055543;28;20043;-64
2023/03/21 06:17:52;;;;;;;15.00;8.30;;;7.70;99.90;;;;;;5059127;28;20645;-65
2023/03/21 06:20:18;;;;;;;14.02;7.90;;;7.70;99.90;;;;;;5056128;28;20041;-63
2023/03/21 06:22:43;;;;;;;13.05;6.75;;;7.70;99.90;;;;;;5051629;28;20470;-65
2023/03/21 06:25:10;;;;;;;15.02;6.97;;;7.80;99.90;;;;;;5048150;28;20032;-64
2023/03/21 06:27:35;;;;;;;15.85;8.00;;;7.80;99.90;;;;;;5059184;28;20667;-67
2023/03/21 06:30:05;;;;;;;15.75;7.25;;;7.70;99.90;;;;;;5058862;28;20029;-65
2023/03/21 06:32:31;;;;;;;14.93;7.72;;;7.80;99.90;;;;;;5059669;28;20075;-63
2023/03/21 06:34:57;;;;;;;14.23;7.60;;;7.80;99.90;;;;;;5048386;28;20094;-66
2023/03/21 06:37:23;;;;;;;16.00;7.50;;;7.90;99.90;;;;;;5055792;28;20033;-66
2023/03/21 06:39:48;;;;;;;14.50;8.18;;;7.90;99.90;;;;;;5047755;28;20453;-65
2023/03/21 06:42:14;;;;;;;14.57;7.28;;;7.90;99.90;;;;;;5046941;28;20049;-64
2023/03/21 06:44:40;;;;;;;12.73;6.45;;;7.90;99.90;;;;;;5052251;28;20098;-64
2023/03/21 06:47:05;;;;;;;15.90;6.20;;;7.90;99.90;;;;;;5055517;28;20090;-65
2023/03/21 06:49:31;;;;;;;14.48;7.13;;;7.90;99.90;;;;;;5063938;28;20033;-61
2023/03/21 06:51:57;;;;;;;14.88;8.35;;;7.90;99.90;;;;;;5048668;28;20075;-64
2023/03/21 06:54:23;;;;;;;13.93;7.25;;;7.90;99.90;;;;;;5055646;28;20456;-64
2023/03/21 06:56:48;;;;;;;14.30;6.88;;;7.90;99.90;;;;;;5056081;28;20086;-65
2023/03/21 06:59:14;;;;;;;14.98;7.78;;;8.00;99.90;;;;;;5043735;28;20599;-64
2023/03/21 07:01:41;;;;;;;14.27;6.53;;;8.00;99.90;;;;;;5046292;28;20397;-64
2023/03/21 07:04:07;;;;;;;16.98;6.70;;;8.10;99.90;;;;;;5058176;28;20115;-66
2023/03/21 07:06:33;;;;;;;14.05;6.40;;;8.00;99.90;;;;;;5052594;28;20039;-61
2023/03/21 07:09:01;;;;;;;16.10;6.35;;;8.00;99.90;;;;;;5042720;28;20033;-66
2023/03/21 07:11:26;;;;;;;13.13;6.50;;;7.90;99.90;;;;;;5061769;28;20072;-66
2023/03/21 07:13:52;;;;;;;14.35;7.03;;;7.90;99.90;;;;;;5042227;28;20242;-66
2023/03/21 07:16:20;;;;;;;14.07;6.65;;;8.00;99.90;;;;;;5049470;28;20521;-66
2023/03/21 07:18:46;;;;;;;11.30;6.50;;;8.10;99.90;;;;;;5066412;28;20040;-64
2023/03/21 07:21:12;;;;;;;12.80;6.90;;;8.10;99.90;;;;;;5065971;28;20041;-65
2023/03/21 07:23:38;;;;;;;15.73;7.97;;;8.30;99.90;;;;;;5048731;28;20116;-64
2023/03/21 07:26:05;;;;;;;16.75;9.02;;;8.40;99.90;;;;;;5059892;28;20410;-66
2023/03/21 07:28:31;;;;;;;18.02;8.82;;;8.60;99.90;;;;;;5038507;28;20048;-65
2023/03/21 07:31:03;;;;;;;14.07;7.97;;;8.80;99.90;;;;;;5046234;28;20029;-66
2023/03/21 07:33:30;;;;;;;14.20;8.13;;;8.80;99.90;;;;;;5055082;28;20109;-67
2023/03/21 07:35:59;;;;;;;15.05;7.45;;;8.90;99.90;;;;;;5052720;28;20107;-65
2023/03/21 07:38:26;;;;;;;19.20;8.10;;;9.00;99.90;;;;;;5061200;28;20838;-65
2023/03/21 07:40:52;;;;;;;12.75;7.55;;;9.20;99.90;;;;;;5052579;28;20017;-66
2023/03/21 07:43:18;;;;;;;13.60;6.85;;;9.30;99.90;;;;;;5062709;28;20036;-65
2023/03/21 07:45:44;;;;;;;11.95;6.20;;;9.50;99.90;;;;;;5056922;28;20032;-66
2023/03/21 07:48:11;;;;;;;10.68;6.32;;;9.60;99.90;;;;;;5055729;28;20036;-64
2023/03/21 07:50:38;;;;;;;14.15;6.88;;;9.80;99.90;;;;;;5058213;28;20025;-62
2023/03/21 07:53:03;;;;;;;14.40;7.28;;;9.80;99.90;;;;;;5047262;28;20029;-65
2023/03/21 07:55:30;;;;;;;14.43;5.93;;;10.00;99.90;;;;;;5059675;28;20150;-69
2023/03/21 07:58:00;;;;;;;11.52;5.63;;;10.00;99.90;;;;;;5047654;28;20130;-64
2023/03/21 08:00:25;;;;;;;12.00;6.63;;;10.10;99.90;;;;;;5059189;28;20671;-70
2023/03/21 08:02:53;;;;;;;11.20;6.47;;;10.10;99.90;;;;;;5057901;28;20032;-65
2023/03/21 08:05:25;;;;;;;13.85;7.25;;;10.20;99.90;;;;;;5050317;28;20021;-67
2023/03/21 08:07:51;;;;;;;12.73;6.57;;;10.20;99.90;;;;;;5042096;28;20045;-67
2023/03/21 08:10:17;;;;;;;11.88;7.13;;;10.30;99.90;;;;;;5060429;28;20058;-66
2023/03/21 08:12:44;;;;;;;10.50;5.53;;;10.30;99.90;;;;;;5057710;28;20028;-62
2023/03/21 08:15:11;;;;;;;8.82;5.45;;;10.30;99.90;;;;;;5041018;28;20040;-65
2023/03/21 08:17:38;;;;;;;10.77;4.72;;;10.40;99.90;;;;;;5050740;28;20163;-62
2023/03/21 08:20:07;;;;;;;6.60;4.25;;;10.50;99.90;;;;;;5049482;28;21245;-66
2023/03/21 08:22:34;;;;;;;8.85;4.32;;;10.60;99.90;;;;;;5065741;28;20548;-66
2023/03/21 08:25:00;;;;;;;7.60;4.10;;;10.60;99.90;;;;;;5050882;28;20037;-68
2023/03/21 08:27:26;;;;;;;10.38;4.18;;;10.70;99.90;;;;;;5052557;28;20141;-66
2023/03/21 08:29:52;;;;;;;8.45;3.95;;;10.70;99.90;;;;;;5062045;28;20145;-68
2023/03/21 08:32:18;;;;;;;6.65;3.60;;;10.70;99.90;;;;;;5052358;28;20079;-68
2023/03/21 08:34:44;;;;;;;11.35;4.50;;;10.90;99.90;;;;;;5058998;28;20033;-68
2023/03/21 08:37:10;;;;;;;9.23;3.60;;;10.90;99.90;;;;;;5050953;28;20032;-68
2023/03/21 08:39:35;;;;;;;6.97;3.70;;;11.00;99.90;;;;;;5061852;28;20039;-69
2023/03/21 08:42:01;;;;;;;7.78;3.38;;;10.90;99.90;;;;;;5055598;28;20040;-69
2023/03/21 08:44:26;;;;;;;8.57;3.47;;;10.90;99.90;;;;;;5067124;28;20031;-68
2023/03/21 08:46:52;;;;;;;7.10;4.05;;;11.00;99.90;;;;;;5047500;28;20028;-69
2023/03/21 08:49:18;;;;;;;11.25;4.30;;;11.10;99.90;;;;;;5037675;28;20029;-67
2023/03/21 08:51:44;;;;;;;9.85;4.20;;;11.10;99.90;;;;;;5061191;28;20032;-68
2023/03/21 08:54:19;;;;;;;7.28;3.35;;;11.20;99.90;;;;;;5069661;28;20115;-69
2023/03/21 08:56:45;;;;;;;6.40;2.80;;;11.20;99.90;;;;;;5060490;28;20036;-68
2023/03/21 08:59:10;;;;;;;7.80;3.72;;;11.10;99.90;;;;;;5059540;28;20389;-68
2023/03/21 09:01:36;;;;;;;6.55;3.53;;;11.20;99.90;;;;;;5052083;28;20111;-70
2023/03/21 09:04:03;;;;;;;6.70;3.47;;;11.20;99.90;;;;;;5060972;28;20037;-69
2023/03/21 09:06:28;;;;;;;7.10;3.20;;;11.20;99.90;;;;;;5060867;28;20121;-66
2023/03/21 09:08:55;;;;;;;11.20;2.65;;;11.30;99.90;;;;;;5054376;28;20619;-68
2023/03/21 09:11:21;;;;;;;6.32;3.00;;;11.20;99.90;;;;;;5050466;28;20119;-69
2023/03/21 09:13:47;;;;;;;4.97;2.70;;;11.40;99.90;;;;;;5056908;28;20158;-70
2023/03/21 09:16:13;;;;;;;5.80;2.88;;;11.70;99.90;;;;;;5057433;28;20033;-69
2023/03/21 09:18:44;;;;;;;5.57;2.78;;;11.90;99.90;;;;;;5049585;28;20104;-70
2023/03/21 09:21:12;;;;;;;7.03;3.33;;;11.90;99.90;;;;;;5050800;28;20056;-67
2023/03/21 09:23:38;;;;;;;6.60;3.00;;;12.00;99.90;;;;;;5058047;28;20450;-71
2023/03/21 09:26:05;;;;;;;7.28;2.70;;;12.00;99.90;;;;;;5056367;28;20080;-68
2023/03/21 09:28:31;;;;;;;5.88;3.05;;;12.10;99.90;;;;;;5045894;28;20056;-68
2023/03/21 09:30:59;;;;;;;5.85;2.70;;;12.20;99.90;;;;;;5062551;28;20376;-70
2023/03/21 09:33:27;;;;;;;7.50;2.80;;;12.30;99.90;;;;;;5061210;28;20035;-70
2023/03/21 09:35:54;;;;;;;7.57;2.83;;;12.40;99.90;;;;;;5065139;28;20040;-70
2023/03/21 09:38:20;;;;;;;4.43;2.60;;;12.40;99.90;;;;;;5068760;28;20032;-69
2023/03/21 09:41:03;;;;;;;5.72;2.80;;;12.50;99.90;;;;;;5048091;28;20028;-68
2023/03/21 09:43:30;;;;;;;5.25;2.72;;;12.70;99.90;;;;;;5050501;28;20025;-69
2023/03/21 09:46:02;;;;;;;5.85;3.13;;;13.00;99.90;;;;;;5044908;28;20039;-70
2023/03/21 09:49:06;;;;;;;5.43;2.72;;;12.90;99.90;;;;;;5052554;28;20033;-69
2023/03/21 09:51:35;;;;;;;4.40;2.65;;;13.20;99.90;;;;;;5053971;28;20423;-70
2023/03/21 09:54:07;;;;;;;5.80;2.90;;;13.50;99.90;;;;;;5057017;28;20551;-70
2023/03/21 09:56:35;;;;;;;8.52;3.00;;;13.60;99.90;;;;;;5060026;28;20032;-68
2023/03/21 09:59:06;;;;;;;5.78;2.85;;;13.80;99.90;;;;;;5034380;28;20036;-69
2023/03/21 10:01:40;;;;;;;5.53;2.80;;;13.70;99.90;;;;;;5053110;28;20434;-69
2023/03/21 10:04:10;;;;;;;8.60;3.33;;;13.70;99.90;;;;;;5067508;28;20135;-69
2023/03/21 10:06:40;;;;;;;4.47;2.50;;;14.10;99.90;;;;;;5056192;28;20033;-69
2023/03/21 10:09:13;;;;;;;5.50;2.90;;;14.20;99.90;;;;;;5041749;28;20096;-69
2023/03/21 10:11:50;;;;;;;5.50;3.28;;;13.70;99.90;;;;;;5050728;28;20334;-69
2023/03/21 10:14:34;;;;;;;9.98;2.88;;;13.30;99.90;;;;;;5062393;28;20044;-70
2023/03/21 10:17:04;;;;;;;6.22;2.88;;;13.20;99.90;;;;;;5043540;28;20064;-70
2023/03/21 10:19:29;;;;;;;5.18;2.95;;;13.00;99.90;;;;;;5051912;28;20029;-70
2023/03/21 10:21:55;;;;;;;6.35;2.80;;;12.90;99.90;;;;;;5058854;28;20131;-68
2023/03/21 10:24:24;;;;;;;4.25;2.33;;;12.90;99.90;;;;;;5053488;28;20403;-70
2023/03/21 10:26:52;;;;;;;8.10;3.30;;;13.00;99.90;;;;;;5059832;28;20071;-71
2023/03/21 10:29:21;;;;;;;6.40;3.55;;;13.30;99.90;;;;;;5047218;28;20083;-70
2023/03/21 10:31:49;;;;;;;5.95;3.10;;;13.60;99.90;;;;;;5051958;28;20033;-64
2023/03/21 10:34:17;;;;;;;7.05;3.22;;;13.80;99.90;;;;;;5051572;28;20032;-67
2023/03/21 10:36:43;;;;;;;4.70;3.05;;;14.10;99.90;;;;;;5059810;28;20036;-70
2023/03/21 10:39:35;;;;;;;7.25;3.50;;;14.30;99.90;;;;;;5054015;28;20035;-67
2023/03/21 10:42:00;;;;;;;6.63;3.53;;;14.30;99.90;;;;;;5033477;28;20128;-69
2023/03/21 10:44:32;;;;;;;5.72;2.78;;;14.50;99.90;;;;;;5053779;28;20107;-69
2023/03/21 10:47:04;;;;;;;6.10;3.20;;;14.80;99.90;;;;;;5051192;28;20033;-71
2023/03/21 10:49:30;;;;;;;5.05;2.90;;;14.90;99.90;;;;;;5040734;28;21118;-69
2023/03/21 10:51:58;;;;;;;3.60;2.45;;;14.80;99.90;;;;;;5048013;28;20040;-69
2023/03/21 10:54:32;;;;;;;6.95;3.28;;;14.90;99.90;;;;;;5046393;28;20031;-71
2023/03/21 10:57:10;;;;;;;7.38;3.17;;;14.60;99.90;;;;;;5023815;28;20025;-71
2023/03/21 10:59:47;;;;;;;4.43;2.70;;;14.50;99.90;;;;;;5036265;28;20067;-69
2023/03/21 11:02:48;;;;;;;6.35;3.15;;;14.90;99.90;;;;;;5050974;28;20036;-69
2023/03/21 11:05:33;;;;;;;5.90;2.90;;;14.80;99.90;;;;;;5034865;28;20041;-69
2023/03/21 11:08:02;;;;;;;6.05;2.47;;;14.60;99.90;;;;;;5057257;28;20044;-72
2023/03/21 11:10:32;;;;;;;3.70;1.97;;;14.70;99.90;;;;;;5038405;28;20021;-72
2023/03/21 11:13:04;;;;;;;6.38;2.13;;;15.00;99.90;;;;;;5044191;28;20037;-72
2023/03/21 11:15:35;;;;;;;4.45;2.00;;;15.30;99.90;;;;;;5047038;28;20029;-72
2023/03/21 11:18:16;;;;;;;5.15;2.47;;;15.10;99.90;;;;;;5051353;28;20037;-69
2023/03/21 11:20:48;;;;;;;4.47;2.05;;;14.50;99.90;;;;;;5044628;28;20084;-69
2023/03/21 11:23:14;;;;;;;5.40;3.10;;;14.30;99.90;;;;;;5069372;28;20040;-69
2023/03/21 11:25:41;;;;;;;7.65;2.72;;;14.40;99.90;;;;;;5048708;28;20043;-69
2023/03/21 11:28:16;;;;;;;3.20;1.98;;;14.70;99.90;;;;;;5065390;28;20033;-70
2023/03/21 11:30:54;;;;;;;3.35;2.20;;;14.80;99.90;;;;;;5053636;28;20021;-71
2023/03/21 11:33:22;;;;;;;6.47;2.38;;;15.10;99.90;;;;;;5058882;28;20071;-72
2023/03/21 11:36:26;;;;;;;5.53;2.58;;;15.60;99.90;;;;;;5050875;28;20029;-65
2023/03/21 11:38:56;;;;;;;5.07;2.72;;;15.50;99.90;;;;;;5043981;28;20031;-70
2023/03/21 11:41:24;;;;;;;3.80;2.40;;;15.80;99.90;;;;;;5060461;28;20020;-69
2023/03/21 11:43:51;;;;;;;4.78;2.70;;;16.30;99.90;;;;;;5065352;28;20044;-64
2023/03/21 11:46:22;;;;;;;5.93;2.85;;;16.10;99.90;;;;;;5060781;28;20112;-69
2023/03/21 11:48:48;;;;;;;3.38;2.10;;;15.70;99.90;;;;;;5056062;28;20445;-66
2023/03/21 11:51:23;;;;;;;4.03;2.47;;;15.80;99.90;;;;;;5049857;28;20139;-67
2023/03/21 11:54:22;;;;;;;6.05;2.70;;;16.00;99.90;;;;;;5061264;28;20539;-64
2023/03/21 11:56:52;;;;;;;4.25;2.80;;;15.80;99.90;;;;;;5033550;28;20036;-65
2023/03/21 11:59:41;;;;;;;6.03;2.20;;;16.00;99.90;;;;;;5052926;28;20029;-67
2023/03/21 12:02:25;;;;;;;2.80;1.90;;;16.20;99.90;;;;;;5050484;28;20032;-69
2023/03/21 12:05:18;;;;;;;3.42;2.08;;;16.50;99.90;;;;;;5052160;28;20089;-65
2023/03/21 12:08:09;;;;;;;3.50;1.70;;;16.30;99.90;;;;;;5054920;28;20037;-69
2023/03/21 12:10:45;;;;;;;3.15;1.85;;;15.80;99.90;;;;;;5037010;28;20044;-68
2023/03/21 12:13:31;;;;;;;4.60;2.35;;;15.60;99.90;;;;;;5051490;28;20025;-68
2023/03/21 12:16:12;;;;;;;4.68;2.50;;;15.40;99.90;;;;;;5055160;28;20035;-72
2023/03/21 12:19:01;;;;;;;4.75;2.05;;;15.20;99.90;;;;;;5061342;28;20114;-69
2023/03/21 12:21:41;;;;;;;3.58;2.17;;;15.20;99.90;;;;;;5050802;28;20508;-70
2023/03/21 12:24:27;;;;;;;4.78;2.35;;;15.40;99.90;;;;;;5049108;28;20035;-71
2023/03/21 12:27:08;;;;;;;5.65;2.78;;;15.40;99.90;;;;;;5056917;28;20495;-66
2023/03/21 12:30:01;;;;;;;4.95;2.60;;;15.30;99.90;;;;;;5062673;28;20021;-69
2023/03/21 12:33:01;;;;;;;3.30;2.28;;;15.30;99.90;;;;;;5057773;28;20136;-70
2023/03/21 12:35:38;;;;;;;6.68;2.35;;;15.20;99.90;;;;;;5044482;28;20497;-70
2023/03/21 12:38:16;;;;;;;4.68;2.75;;;15.40;99.90;;;;;;5028200;28;20033;-72
2023/03/21 12:40:46;;;;;;;4.60;2.80;;;15.60;99.90;;;;;;5048688;28;20021;-73
2023/03/21 12:43:20;;;;;;;10.50;3.30;;;15.70;99.90;;;;;;5044094;28;20075;-70
2023/03/21 12:45:51;;;;;;;4.80;2.70;;;15.40;99.90;;;;;;5041019;28;20091;-69
2023/03/21 12:48:40;;;;;;;7.82;3.17;;;15.30;99.90;;;;;;5053874;28;20025;-69
2023/03/21 12:51:11;;;;;;;5.82;2.17;;;15.20;99.90;;;;;;5040160;28;20048;-70
2023/03/21 12:54:02;;;;;;;4.72;2.40;;;15.20;99.90;;;;;;5060848;28;20494;-69
2023/03/21 12:56:43;;;;;;;8.27;2.85;;;15.20;99.90;;;;;;5043334;28;20108;-70
2023/03/21 12:59:30;;;;;;;7.53;3.08;;;15.20;99.90;;;;;;5052371;28;20028;-71
2023/03/21 13:02:03;;;;;;;4.55;2.58;;;15.10;99.90;;;;;;5046894;28;20036;-69
2023/03/21 13:04:51;;;;;;;4.75;2.55;;;15.10;99.90;;;;;;5050373;28;20124;-68
2023/03/21 13:07:18;;;;;;;5.43;2.60;;;15.00;99.90;;;;;;5045756;28;20499;-66